Time;durP1;ratioP1;P1;durP2;ratioP2;P2;SDS_P1;SDS_P2;PMS_P1;PMS_P2;Temp;Humidity;BMP_temperature;BMP_pressure;BME280_temperature;BME280_humidity;BME280_pressure;Samples;Min_cycle;Max_cycle;Signal;HPM_P1;HPM_P2
2023/09/13 00:01:23;;;;;;;25.20;15.17;;;;;;;19.28;100.00;6274.97;6212388;23;20355;-74
2023/09/13 00:03:48;;;;;;;23.70;14.43;;;;;;;19.27;100.00;5580.56;6212843;23;20047;-74
2023/09/13 00:06:14;;;;;;;20.70;14.33;;;;;;;19.25;100.00;5927.50;6213444;23;20004;-74
2023/09/13 00:08:39;;;;;;;23.93;15.23;;;;;;;19.24;100.00;4539.09;6181070;23;20012;-73
2023/09/13 00:11:05;;;;;;;24.93;14.87;;;;;;;19.23;100.00;3151.19;6210712;23;20023;-74
2023/09/13 00:13:34;;;;;;;23.30;15.48;;;;;;;19.23;100.00;2804.34;6206566;23;20031;-74
2023/09/13 00:15:59;;;;;;;28.08;16.40;;;;;;;19.24;100.00;1764.03;6208725;23;20027;-74
2023/09/13 00:18:25;;;;;;;24.03;15.90;;;;;;;19.26;100.00;724.00;6212760;23;20004;-71
2023/09/13 00:20:54;;;;;;;23.90;16.10;;;;;;;19.32;100.00;1071.00;6182211;23;20004;-72
2023/09/13 00:23:19;;;;;;;29.98;18.92;;;;;;;19.46;100.00;378.13;6205759;23;20009;-74
2023/09/13 00:25:45;;;;;;;32.97;20.67;;;;;;;19.51;100.00;1765.66;6206701;23;20000;-74
2023/09/13 00:28:10;;;;;;;31.47;18.17;;;;;;;19.57;100.00;2113.00;6209994;23;20427;-73
2023/09/13 00:30:36;;;;;;;31.87;20.50;;;;;;;19.63;100.00;3501.66;6212450;23;20026;-73
2023/09/13 00:33:01;;;;;;;33.07;19.03;;;;;;;19.65;100.00;4196.16;6186326;23;20004;-74
2023/09/13 00:35:26;;;;;;;31.57;18.40;;;;;;;19.67;100.00;5238.13;6213455;23;20011;-73
2023/09/13 00:37:52;;;;;;;33.60;20.53;;;;;;;19.74;100.00;4891.63;6212920;23;20015;-72
2023/09/13 00:40:18;;;;;;;36.23;24.00;;;;;;;19.74;100.00;4544.34;6212548;23;20007;-72
2023/09/13 00:42:44;;;;;;;38.00;26.00;;;;;;;19.78;100.00;4197.47;6206967;23;20009;-73
2023/09/13 00:45:12;;;;;;;36.03;25.63;;;;;;;19.74;100.00;3502.63;6210356;23;20229;-71
2023/09/13 00:47:40;;;;;;;42.28;28.50;;;;;;;19.75;100.00;2114.22;6213380;23;20004;-73
2023/09/13 00:50:08;;;;;;;46.13;28.95;;;;;;;19.70;100.00;1072.88;6212758;23;19997;-73
2023/09/13 00:52:34;;;;;;;46.67;30.08;;;;;;;19.69;100.00;-314.69;6213255;23;20005;-73
2023/09/13 00:55:00;;;;;;;47.60;31.15;;;;;;;19.61;100.00;-2048.41;6213091;23;20004;-71
2023/09/13 00:57:25;;;;;;;45.47;31.27;;;;;;;19.63;100.00;-2741.59;6213307;23;20001;-73
2023/09/13 00:59:51;;;;;;;55.90;30.97;;;;;;;19.62;100.00;-3781.13;6212347;23;20055;-73
2023/09/13 01:02:17;;;;;;;50.23;33.53;;;;;;;19.57;100.00;-4473.78;6211674;23;20012;-73
2023/09/13 01:04:42;;;;;;;50.17;31.00;;;;;;;19.52;100.00;-5166.22;6181270;23;20001;-72
2023/09/13 01:07:08;;;;;;;44.67;31.63;;;;;;;19.47;100.00;-6896.84;6210579;23;20009;-74
2023/09/13 01:09:34;;;;;;;51.35;32.22;;;;;;;19.42;100.00;-6896.50;6211342;23;20020;-73
2023/09/13 01:12:00;;;;;;;49.93;33.07;;;;;;;19.36;100.00;-7588.00;6212700;23;20000;-74
2023/09/13 01:14:26;;;;;;;53.05;34.17;;;;;;;19.31;100.00;-7933.53;6212244;23;20004;-74
2023/09/13 01:17:03;;;;;;;56.47;33.22;;;;;;;19.23;100.00;-8278.63;6180874;23;20007;-73
2023/09/13 01:20:00;;;;;;;56.38;37.42;;;;;;;19.27;100.00;-10353.63;6185735;23;20008;-73
2023/09/13 01:22:26;;;;;;;52.17;35.38;;;;;;;19.22;100.00;-11044.25;6200945;23;20607;-73
2023/09/13 01:25:31;;;;;;;57.23;37.83;;;;;;;19.20;100.00;-11389.44;6181422;23;20009;-73
2023/09/13 01:28:21;;;;;;;56.05;38.70;;;;;;;19.26;100.00;-12426.94;6208260;23;20024;-73
2023/09/13 01:30:49;;;;;;;64.00;40.95;;;;;;;19.15;100.00;-12770.59;6212013;23;19996;-73
2023/09/13 01:33:14;;;;;;;58.47;36.78;;;;;;;19.07;100.00;-12769.19;6211883;23;20009;-73
2023/09/13 01:35:39;;;;;;;64.83;39.60;;;;;;;19.02;100.00;-14149.28;6213491;23;20075;-73
2023/09/13 01:38:05;;;;;;;61.07;39.83;;;;;;;19.00;100.00;-15184.41;6211776;23;20012;-73
2023/09/13 01:40:34;;;;;;;57.47;37.17;;;;;;;18.92;100.00;-15182.69;6212524;23;20335;-74
2023/09/13 01:43:02;;;;;;;59.97;35.67;;;;;;;18.86;100.00;-15871.41;6212287;23;20016;-74
2023/09/13 01:45:31;;;;;;;49.78;34.47;;;;;;;18.83;100.00;-16215.53;6212033;23;20024;-73
2023/09/13 01:47:57;;;;;;;53.30;35.88;;;;;;;18.93;100.00;-16562.75;6212259;23;20011;-74
2023/09/13 01:50:22;;;;;;;53.35;34.95;;;;;;;18.81;100.00;-16559.94;6212738;23;20000;-74
2023/09/13 01:52:48;;;;;;;51.70;34.40;;;;;;;18.84;100.00;-16215.88;6213014;23;20005;-73
2023/09/13 01:55:13;;;;;;;54.00;34.63;;;;;;;18.83;100.00;-16215.63;6212064;23;20088;-73
2023/09/13 01:57:39;;;;;;;55.20;34.30;;;;;;;18.84;100.00;-15870.84;6211979;23;20378;-73
2023/09/13 02:00:05;;;;;;;55.08;34.65;;;;;;;18.72;100.00;-15523.38;6182335;23;20036;-74
2023/09/13 02:02:31;;;;;;;58.35;36.45;;;;;;;18.78;100.00;-15869.59;6182468;23;20502;-73
2023/09/13 02:04:56;;;;;;;53.83;36.60;;;;;;;18.70;100.00;-16212.66;6209420;23;20005;-74
2023/09/13 02:07:21;;;;;;;57.43;36.67;;;;;;;18.72;100.00;-16213.00;6214436;23;20004;-73
2023/09/13 02:09:47;;;;;;;54.53;35.67;;;;;;;18.69;100.00;-16557.13;6215066;23;20072;-73
2023/09/13 02:12:13;;;;;;;62.27;35.67;;;;;;;18.65;100.00;-16556.19;6214245;23;20339;-73
2023/09/13 02:14:41;;;;;;;55.23;35.47;;;;;;;18.65;100.00;-16556.19;6214569;23;20035;-72
2023/09/13 02:17:09;;;;;;;53.97;35.72;;;;;;;18.65;100.00;-16556.31;6213866;23;20222;-74
2023/09/13 02:19:35;;;;;;;57.05;37.08;;;;;;;18.61;100.00;-16555.34;6214152;23;20012;-73
2023/09/13 02:22:01;;;;;;;54.45;34.92;;;;;;;18.55;100.00;-16553.84;6213945;23;20009;-74
2023/09/13 02:24:27;;;;;;;53.83;35.70;;;;;;;18.60;100.00;-16555.13;6214802;23;20330;-73
2023/09/13 02:26:59;;;;;;;53.97;34.77;;;;;;;18.56;100.00;-16554.06;6213926;23;20008;-74
2023/09/13 02:29:25;;;;;;;59.30;35.30;;;;;;;18.51;100.00;-16208.19;6203074;23;20039;-73
2023/09/13 02:31:51;;;;;;;55.22;36.05;;;;;;;18.55;100.00;-15864.34;6213810;23;19997;-74
2023/09/13 02:34:17;;;;;;;50.13;34.10;;;;;;;18.46;100.00;-15172.81;6213702;23;20058;-73
2023/09/13 02:36:42;;;;;;;53.20;35.77;;;;;;;18.46;100.00;-14828.00;6214617;23;20012;-73
2023/09/13 02:39:37;;;;;;;59.73;36.80;;;;;;;18.44;100.00;-14482.75;6184907;23;20001;-73
2023/09/13 02:42:03;;;;;;;50.05;33.55;;;;;;;18.39;100.00;-13792.16;6213991;23;20080;-74
2023/09/13 02:44:30;;;;;;;53.33;34.47;;;;;;;18.35;100.00;-14136.13;6214324;23;20004;-74
2023/09/13 02:46:55;;;;;;;;;;;;;;;18.35;100.00;-14136.22;6214169;23;20004;-73
2023/09/13 02:49:21;;;;;;;55.35;35.95;;;;;;;18.35;100.00;-14136.13;6213545;23;19903;-74
2023/09/13 02:51:47;;;;;;;55.20;35.00;;;;;;;18.30;100.00;-14135.13;6214106;23;20017;-74
2023/09/13 02:54:13;;;;;;;;;;;;;;;18.33;100.00;-14825.28;6214764;23;20446;-74
2023/09/13 02:56:38;;;;;;;53.05;34.92;;;;;;;18.39;100.00;-15171.31;6207241;23;19983;-73
2023/09/13 02:59:03;;;;;;;52.80;34.23;;;;;;;18.45;100.00;-15862.22;6210641;23;20343;-74
2023/09/13 03:01:29;;;;;;;53.60;35.63;;;;;;;18.47;100.00;-15517.91;6213716;23;20051;-74
2023/09/13 03:03:55;;;;;;;50.93;35.53;;;;;;;18.48;100.00;-15173.22;6213029;23;20016;-74
2023/09/13 03:06:20;;;;;;;50.63;35.43;;;;;;;18.50;100.00;-15173.75;6213619;23;20012;-74
2023/09/13 03:08:45;;;;;;;56.77;37.33;;;;;;;18.47;100.00;-14483.34;6181869;23;20091;-73
2023/09/13 03:11:12;;;;;;;54.57;35.63;;;;;;;18.47;100.00;-14483.34;6211785;23;20001;-72
2023/09/13 03:13:38;;;;;;;58.50;36.78;;;;;;;18.39;100.00;-14136.91;6213741;23;20079;-73
2023/09/13 03:16:15;;;;;;;54.40;34.20;;;;;;;18.42;100.00;-14137.59;6213387;23;20028;-74
2023/09/13 03:18:41;;;;;;;54.92;35.28;;;;;;;18.38;100.00;-14136.72;6212865;23;20374;-73
2023/09/13 03:21:08;;;;;;;61.38;37.45;;;;;;;18.37;100.00;-14481.44;6213358;23;20004;-73
2023/09/13 03:23:38;;;;;;;58.10;36.00;;;;;;;18.38;100.00;-14826.44;6213222;23;20074;-73
2023/09/13 03:26:11;;;;;;;71.63;37.15;;;;;;;18.32;100.00;-15169.94;6183912;23;20013;-74
2023/09/13 03:28:36;;;;;;;59.55;35.35;;;;;;;18.36;100.00;-16204.75;6213149;23;20004;-73
2023/09/13 03:31:07;;;;;;;57.47;34.37;;;;;;;18.41;100.00;-16895.16;6212831;23;20076;-73
2023/09/13 03:33:32;;;;;;;60.42;35.00;;;;;;;18.46;100.00;-17585.56;6213962;23;20004;-73
2023/09/13 03:35:58;;;;;;;55.60;33.93;;;;;;;18.49;100.00;-17930.91;6208008;23;20008;-73
2023/09/13 03:38:23;;;;;;;55.83;31.77;;;;;;;18.53;100.00;-18276.63;6213948;23;20027;-73
2023/09/13 03:40:48;;;;;;;59.87;32.20;;;;;;;18.64;100.00;-18968.56;6213723;23;20336;-73
2023/09/13 03:43:14;;;;;;;57.57;31.87;;;;;;;18.66;100.00;-19313.63;6213465;23;20008;-73
2023/09/13 03:45:39;;;;;;;53.60;30.20;;;;;;;18.68;100.00;-20692.13;6206467;23;19997;-74
2023/09/13 03:48:05;;;;;;;41.07;26.33;;;;;;;18.68;100.00;-20347.69;6210692;23;20009;-73
2023/09/13 03:50:32;;;;;;;42.13;25.63;;;;;;;18.65;100.00;-20346.78;6212924;23;20071;-75
2023/09/13 03:52:57;;;;;;;41.15;24.30;;;;;;;18.67;100.00;-20347.38;6213062;23;20004;-75
2023/09/13 03:55:22;;;;;;;42.47;23.87;;;;;;;18.65;100.00;-20002.34;6214283;23;20018;-74
2023/09/13 03:57:49;;;;;;;38.90;23.07;;;;;;;18.63;100.00;-20690.59;6213679;23;20007;-74
2023/09/13 04:00:15;;;;;;;46.28;25.23;;;;;;;18.63;100.00;-21379.47;6212206;23;20009;-74
2023/09/13 04:02:41;;;;;;;52.33;26.88;;;;;;;18.66;100.00;-22069.03;6212711;23;20023;-74
2023/09/13 04:05:06;;;;;;;44.43;26.30;;;;;;;18.64;100.00;-22412.47;6213732;23;20008;-74
2023/09/13 04:07:32;;;;;;;49.23;27.10;;;;;;;18.55;100.00;-22409.69;6182418;23;19997;-74
2023/09/13 04:09:57;;;;;;;54.63;28.63;;;;;;;18.52;100.00;-23096.81;6208668;23;20000;-74
2023/09/13 04:12:22;;;;;;;43.27;28.90;;;;;;;18.45;100.00;-23782.69;6206910;23;20028;-74
2023/09/13 04:14:48;;;;;;;54.73;27.77;;;;;;;18.41;100.00;-24125.25;6182327;23;20009;-74
2023/09/13 04:17:13;;;;;;;55.00;30.67;;;;;;;18.49;100.00;-24129.94;6211509;23;20131;-74
2023/09/13 04:19:38;;;;;;;49.87;29.20;;;;;;;18.44;100.00;-24128.34;6213433;23;20000;-74
2023/09/13 04:22:04;;;;;;;55.07;30.50;;;;;;;18.41;100.00;-24127.25;6213322;23;20539;-75
2023/09/13 04:24:29;;;;;;;48.27;29.80;;;;;;;18.38;100.00;-24126.19;6182360;23;20093;-74
2023/09/13 04:26:54;;;;;;;58.23;32.33;;;;;;;18.33;100.00;-24124.41;6181504;23;20058;-75
2023/09/13 04:29:20;;;;;;;61.07;31.40;;;;;;;18.33;100.00;-24124.41;6181435;23;20008;-74
2023/09/13 04:31:45;;;;;;;56.53;30.13;;;;;;;18.32;100.00;-24123.88;6205834;23;20055;-75
2023/09/13 04:34:10;;;;;;;55.53;30.30;;;;;;;18.28;100.00;-24122.44;6184919;23;20067;-74
2023/09/13 04:36:36;;;;;;;55.27;29.17;;;;;;;18.26;100.00;-24121.72;6206635;23;20015;-74
2023/09/13 04:39:02;;;;;;;50.90;28.20;;;;;;;18.20;100.00;-24119.59;6209314;23;20001;-74
2023/09/13 04:41:27;;;;;;;49.87;28.50;;;;;;;18.17;100.00;-24118.50;6213075;23;20001;-75
2023/09/13 04:43:52;;;;;;;45.77;26.60;;;;;;;18.21;100.00;-24119.94;6212719;23;20008;-74
2023/09/13 04:46:18;;;;;;;51.20;30.10;;;;;;;18.12;100.00;-24116.91;6180603;23;20009;-75
2023/09/13 04:48:43;;;;;;;50.80;27.07;;;;;;;18.19;100.00;-24119.22;6205637;23;20008;-74
2023/09/13 04:51:10;;;;;;;45.50;26.43;;;;;;;18.16;100.00;-24118.34;6213239;23;20358;-74
2023/09/13 04:53:35;;;;;;;44.45;27.30;;;;;;;18.09;100.00;-24115.66;6214450;23;20078;-74
2023/09/13 04:56:01;;;;;;;38.80;23.97;;;;;;;18.04;100.00;-24113.88;6207850;23;19997;-75
2023/09/13 04:58:27;;;;;;;40.07;25.20;;;;;;;18.05;100.00;-24114.41;6181359;23;20049;-74
2023/09/13 05:00:52;;;;;;;39.92;24.35;;;;;;;18.03;100.00;-24113.50;6207643;23;20032;-74
2023/09/13 05:03:18;;;;;;;39.07;23.43;;;;;;;18.00;100.00;-24112.63;6210237;23;20016;-72
2023/09/13 05:05:43;;;;;;;43.63;24.10;;;;;;;18.01;100.00;-24112.78;6213097;23;20218;-76
2023/09/13 05:08:09;;;;;;;42.00;22.50;;;;;;;18.01;100.00;-24112.97;6183972;23;20001;-77
2023/09/13 05:10:34;;;;;;;36.03;22.50;;;;;;;17.96;100.00;-24111.00;6213303;23;20378;-77
2023/09/13 05:13:00;;;;;;;36.50;21.80;;;;;;;17.98;100.00;-24111.91;6181532;23;20001;-77
2023/09/13 05:15:25;;;;;;;37.07;22.60;;;;;;;18.04;100.00;-24113.88;6213325;23;20008;-77
2023/09/13 05:17:51;;;;;;;37.33;23.10;;;;;;;18.10;100.00;-24116.19;6212394;23;20438;-76
2023/09/13 05:20:16;;;;;;;36.57;22.73;;;;;;;18.11;100.00;-24116.38;6213185;23;20390;-77
2023/09/13 05:22:42;;;;;;;45.77;23.87;;;;;;;18.17;100.00;-24118.69;6212961;23;20005;-77
2023/09/13 05:25:08;;;;;;;36.00;22.70;;;;;;;18.13;100.00;-24115.25;6184179;23;20001;-77
2023/09/13 05:27:33;;;;;;;34.67;23.20;;;;;;;18.16;100.00;-24116.13;6204676;23;19997;-76
2023/09/13 05:29:59;;;;;;;33.57;22.63;;;;;;;18.18;100.00;-24116.84;6180546;23;20071;-77
2023/09/13 05:32:24;;;;;;;32.73;21.33;;;;;;;18.23;100.00;-23774.75;6183623;23;20091;-77
2023/09/13 05:34:50;;;;;;;33.27;21.73;;;;;;;18.29;100.00;-23432.94;6204677;23;20431;-77
2023/09/13 05:37:15;;;;;;;33.90;20.83;;;;;;;18.31;100.00;-23433.63;6185631;23;20040;-78
2023/09/13 05:39:40;;;;;;;37.00;22.73;;;;;;;18.27;100.00;-23776.34;6188445;23;20018;-77
2023/09/13 05:42:06;;;;;;;31.47;15.53;;;;;;;18.25;100.00;-21711.53;6213277;23;20087;-76
2023/09/13 05:44:33;;;;;;;21.93;8.43;;;;;;;18.11;100.00;-16887.94;6215745;23;20311;-78
2023/09/13 05:46:58;;;;;;;18.83;5.57;;;;;;;18.01;100.00;-11371.38;6214762;23;20005;-77
2023/09/13 05:49:24;;;;;;;22.80;6.00;;;;;;;17.95;100.00;-5503.53;6183342;23;20016;-77
2023/09/13 05:51:50;;;;;;;16.40;4.77;;;;;;;17.93;100.00;-2393.88;6182641;23;20009;-77
2023/09/13 05:54:18;;;;;;;15.83;3.90;;;;;;;17.86;100.00;26.19;6212750;23;20031;-77
2023/09/13 05:56:44;;;;;;;18.42;4.45;;;;;;;17.82;100.00;1409.50;6213307;23;20079;-79
2023/09/13 05:59:09;;;;;;;23.15;4.10;;;;;;;17.78;100.00;1409.31;6183451;23;20128;-77
2023/09/13 06:01:35;;;;;;;10.90;3.17;;;;;;;17.63;100.00;4522.16;6207896;23;20029;-77
2023/09/13 06:04:01;;;;;;;7.20;2.97;;;;;;;17.57;100.00;6598.47;6208504;23;20021;-77
2023/09/13 06:06:27;;;;;;;7.70;2.37;;;;;;;17.50;100.00;9021.69;6213039;23;20005;-77
2023/09/13 06:08:53;;;;;;;11.23;2.33;;;;;;;17.49;100.00;11100.59;6213589;23;20042;-77
2023/09/13 06:11:18;;;;;;;5.30;2.13;;;;;;;17.31;100.00;15951.06;6181081;23;19997;-77
2023/09/13 06:13:44;;;;;;;7.37;2.23;;;;;;;17.18;100.00;17681.88;6206376;23;20005;-77
2023/09/13 06:16:09;;;;;;;4.70;1.97;;;;;;;17.13;100.00;17680.44;6214359;23;20004;-74
2023/09/13 06:18:35;;;;;;;6.70;2.00;;;;;;;17.04;100.00;18024.38;6215146;23;20009;-74
2023/09/13 06:21:01;;;;;;;7.00;2.78;;;;;;;17.01;100.00;17329.69;6214310;23;20007;-74
2023/09/13 06:23:52;;;;;;;10.77;2.30;;;;;;;16.99;100.00;14901.47;6215079;23;20005;-73
2023/09/13 06:26:18;;;;;;;10.82;2.17;;;;;;;16.96;100.00;15594.03;6198726;23;20075;-75
2023/09/13 06:28:43;;;;;;;6.77;1.80;;;;;;;16.94;100.00;16633.69;6213110;23;20008;-75
2023/09/13 06:31:09;;;;;;;4.90;1.87;;;;;;;16.86;100.00;17325.00;6212794;23;20001;-74
2023/09/13 06:33:34;;;;;;;7.10;2.20;;;;;;;16.76;100.00;17321.72;6214195;23;20008;-76
2023/09/13 06:36:00;;;;;;;8.00;2.20;;;;;;;16.84;100.00;17671.03;6209236;23;20111;-75
2023/09/13 06:38:25;;;;;;;8.80;2.40;;;;;;;16.95;100.00;16287.38;6215120;23;20435;-74
2023/09/13 06:40:51;;;;;;;5.83;2.20;;;;;;;16.88;100.00;19754.16;6213161;23;20004;-74
2023/09/13 06:43:21;;;;;;;5.78;2.28;;;;;;;16.97;100.00;21145.75;6213583;23;20051;-74
2023/09/13 06:45:47;;;;;;;5.32;2.08;;;;;;;16.92;100.00;22532.88;6213081;23;20008;-74
2023/09/13 06:48:13;;;;;;;7.90;2.33;;;;;;;16.85;100.00;25656.75;6213473;23;20008;-75
2023/09/13 06:50:39;;;;;;;6.15;2.20;;;;;;;16.84;100.00;24961.28;6208452;23;19997;-74
2023/09/13 06:53:04;;;;;;;10.43;2.57;;;;;;;16.91;100.00;23921.94;6210909;23;20004;-74
2023/09/13 06:55:31;;;;;;;6.20;2.50;;;;;;;16.86;100.00;26700.00;6183035;23;20088;-75
2023/09/13 06:57:56;;;;;;;5.32;2.53;;;;;;;16.86;100.00;26352.38;6206156;23;20092;-74
2023/09/13 07:00:21;;;;;;;6.20;2.17;;;;;;;16.84;100.00;25656.31;6211625;23;20088;-74
2023/09/13 07:02:47;;;;;;;5.67;2.57;;;;;;;16.87;100.00;27395.84;6213233;23;20012;-75
2023/09/13 07:05:13;;;;;;;7.30;2.47;;;;;;;16.87;100.00;29135.03;6208207;23;20023;-74
2023/09/13 07:07:38;;;;;;;9.97;3.13;;;;;;;17.08;100.00;29145.41;6210917;23;20084;-74
2023/09/13 07:10:04;;;;;;;8.30;2.53;;;;;;;17.03;100.00;31579.63;6211674;23;20000;-74
2023/09/13 07:12:30;;;;;;;6.43;2.80;;;;;;;17.13;100.00;32281.34;6210913;23;20461;-75
2023/09/13 07:14:56;;;;;;;5.43;2.60;;;;;;;17.16;100.00;37860.28;6180431;23;20247;-75
2023/09/13 07:17:22;;;;;;;5.45;2.05;;;;;;;17.14;100.00;43094.06;6210573;23;20008;-74
2023/09/13 07:19:47;;;;;;;10.93;2.13;;;;;;;17.18;100.00;51489.16;6180300;23;20335;-74
2023/09/13 07:22:13;;;;;;;9.87;2.33;;;;;;;17.30;100.00;60612.63;6182555;23;20005;-74
2023/09/13 07:29:49;;;;;;;7.45;2.60;;;;;;;17.39;100.00;80323.28;6214882;22;1114303;-74
2023/09/13 07:32:17;;;;;;;6.75;2.88;;;;;;;17.39;100.00;85970.25;6274987;22;20438;-75
2023/09/13 07:34:42;;;;;;;5.70;2.05;;;;;;;17.50;100.00;83161.09;6247944;22;20006;-74
2023/09/13 07:37:08;;;;;;;2.70;1.83;;;;;;;17.44;100.00;95171.47;6274961;22;19999;-74
2023/09/13 07:39:33;;;;;;;4.07;2.40;;;;;;;17.55;100.00;99795.50;6274992;22;20031;-74
2023/09/13 07:41:59;;;;;;;3.20;1.93;;;;;;;17.44;100.00;104741.31;6274200;22;20006;-75
2023/09/13 07:44:24;;;;;;;7.20;2.60;;;;;;;17.60;100.00;102995.78;6274951;22;20027;-74
2023/09/13 07:46:50;;;;;;;5.77;1.80;;;;;;;17.70;100.00;111181.97;6248150;22;20029;-74
2023/09/13 07:49:15;;;;;;;12.77;2.87;;;;;;;17.78;100.00;120096.91;6275374;22;20007;-73
2023/09/13 08:22:42;;;;;;;6.63;2.40;;;;;;;18.66;100.00;156117.59;6263454;22;20031;-72
2023/09/13 08:25:08;;;;;;;2.63;1.93;;;;;;;18.73;100.00;156135.84;6246646;22;20008;-73
2023/09/13 08:27:33;;;;;;;2.90;1.50;;;;;;;18.56;100.00;156092.84;6274905;22;20307;-73
2023/09/13 08:29:58;;;;;;;3.67;1.50;;;;;;;18.61;100.00;156104.53;6274593;22;20002;-74
2023/09/13 08:32:24;;;;;;;5.73;2.10;;;;;;;18.65;100.00;156116.31;6274215;22;20361;-75
2023/09/13 08:34:49;;;;;;;3.80;1.53;;;;;;;19.00;100.00;156206.22;6247189;22;20334;-74
2023/09/13 08:37:15;;;;;;;5.43;1.67;;;;;;;19.17;100.00;156251.84;6274612;22;20027;-76
2023/09/13 08:39:41;;;;;;;4.60;1.65;;;;;;;19.15;100.00;156246.59;6274998;22;19995;-77
2023/09/13 08:42:06;;;;;;;1.87;1.47;;;;;;;19.04;100.00;156216.66;6274496;22;20004;-77
2023/09/13 08:44:35;;;;;;;4.20;1.60;;;;;;;19.13;100.00;156240.06;6274686;22;20010;-75
2023/09/13 08:47:02;;;;;;;2.63;1.73;;;;;;;19.09;100.00;156229.63;6274496;22;20003;-76
2023/09/13 08:49:29;;;;;;;3.88;1.77;;;;;;;19.05;100.00;156219.25;6247613;22;20057;-76
2023/09/13 08:51:55;;;;;;;2.20;1.45;;;;;;;19.26;100.00;156274.03;6247300;22;20027;-76
2023/09/13 08:54:21;;;;;;;2.17;1.95;;;;;;;19.23;100.00;156267.53;6247061;22;20425;-79
2023/09/13 08:56:47;;;;;;;4.18;1.77;;;;;;;19.47;100.00;156328.78;6274112;22;20001;-79
2023/09/13 08:59:13;;;;;;;3.07;1.40;;;;;;;19.54;100.00;156348.28;6274161;22;20422;-78
2023/09/13 09:01:43;;;;;;;3.27;1.57;;;;;;;19.64;100.00;156373.09;6247390;22;20008;-78
2023/09/13 09:04:11;;;;;;;2.90;1.48;;;;;;;19.78;100.00;156409.59;6270962;22;20012;-77
2023/09/13 09:06:36;;;;;;;2.60;1.50;;;;;;;20.11;100.00;156495.75;6272313;22;20000;-78
2023/09/13 09:09:04;;;;;;;4.30;1.57;;;;;;;20.31;100.00;156547.88;6273237;22;20003;-78
2023/09/13 09:11:31;;;;;;;6.65;1.70;;;;;;;20.58;100.00;156618.31;6246028;22;20082;-79
2023/09/13 09:13:59;;;;;;;3.00;1.90;;;;;;;20.81;100.00;156678.38;6273718;22;19999;-76
2023/09/13 09:16:30;;;;;;;6.05;1.80;;;;;;;20.57;100.00;156615.72;6273710;22;20045;-77
2023/09/13 09:18:59;;;;;;;7.93;3.35;;;;;;;20.16;100.00;156508.78;6270670;22;20031;-75
2023/09/13 09:21:25;;;;;;;4.57;1.50;;;;;;;20.30;100.00;156546.59;6272183;22;20401;-76
2023/09/13 09:23:51;;;;;;;1.77;1.30;;;;;;;20.42;100.00;156576.56;6273617;22;20010;-79
2023/09/13 09:26:16;;;;;;;4.60;1.97;;;;;;;20.23;100.00;156527.03;6273626;22;20070;-77
2023/09/13 09:28:42;;;;;;;1.90;1.50;;;;;;;20.29;100.00;156542.69;6273991;22;20012;-77
2023/09/13 09:31:10;;;;;;;6.68;1.50;;;;;;;20.65;100.00;156636.63;6273538;22;20073;-78
2023/09/13 09:33:38;;;;;;;7.63;1.55;;;;;;;20.94;100.00;156712.34;6274547;22;20000;-76
2023/09/13 09:36:04;;;;;;;2.67;1.50;;;;;;;21.13;100.00;156763.22;6246811;22;20011;-77
2023/09/13 09:38:30;;;;;;;5.90;1.67;;;;;;;20.85;100.00;156690.09;6274380;22;20041;-76
2023/09/13 09:41:02;;;;;;;8.63;1.85;;;;;;;21.04;100.00;156738.44;6274097;22;19999;-78
2023/09/13 09:43:28;;;;;;;5.07;1.50;;;;;;;20.96;100.00;156718.88;6247575;22;20004;-77
2023/09/13 09:45:54;;;;;;;1.98;1.40;;;;;;;21.03;100.00;156735.84;6273765;22;20428;-77
2023/09/13 09:48:20;;;;;;;2.35;1.63;;;;;;;20.65;100.00;156636.63;6272081;22;20360;-73
2023/09/13 09:50:47;;;;;;;9.32;1.73;;;;;;;20.99;100.00;156726.72;6273690;22;20008;-73
2023/09/13 09:53:13;;;;;;;5.90;1.48;;;;;;;20.81;100.00;156679.66;6246384;22;20035;-74
2023/09/13 09:55:40;;;;;;;4.03;1.58;;;;;;;21.08;100.00;156748.91;6274392;22;20314;-74
2023/09/13 09:58:06;;;;;;;4.03;1.55;;;;;;;21.23;100.00;156789.34;6273422;22;20014;-74
2023/09/13 10:00:49;;;;;;;3.17;1.48;;;;;;;21.71;100.00;156913.44;6274331;22;20004;-74
2023/09/13 10:03:17;;;;;;;3.95;1.73;;;;;;;21.66;100.00;156901.63;6273996;22;19995;-74
2023/09/13 10:06:01;;;;;;;5.43;1.80;;;;;;;21.82;100.00;156943.44;6246820;22;20315;-73
2023/09/13 10:08:38;;;;;;;3.13;1.73;;;;;;;21.73;100.00;156919.97;6272949;22;20006;-74
2023/09/13 10:11:05;;;;;;;4.18;1.92;;;;;;;21.83;100.00;156946.06;6245445;22;20004;-74
2023/09/13 10:13:33;;;;;;;;;;;;;;;22.09;100.00;157012.69;6273138;22;20728;-74
2023/09/13 10:16:00;;;;;;;5.60;1.92;;;;;;;22.06;100.00;157004.84;6274050;22;20218;-74
2023/09/13 10:18:26;;;;;;;5.47;2.03;;;;;;;21.89;100.00;156961.78;6247034;22;20340;-73
2023/09/13 10:20:56;;;;;;;7.60;2.20;;;;;;;22.51;100.00;157122.50;6273333;22;20193;-74
2023/09/13 10:23:28;;;;;;;6.30;2.35;;;;;;;22.01;100.00;156991.78;6248563;22;20019;-74
2023/09/13 10:25:58;;;;;;;6.10;2.95;;;;;;;21.02;100.00;156734.50;6275711;22;20053;-74
2023/09/13 10:28:26;;;;;;;5.47;2.22;;;;;;;20.73;100.00;156657.47;6275786;22;20075;-74
2023/09/13 10:30:53;;;;;;;4.38;2.20;;;;;;;20.16;100.00;156510.06;6267862;22;20130;-74
2023/09/13 10:33:21;;;;;;;6.82;2.35;;;;;;;20.03;100.00;156476.13;6275423;22;20086;-74
2023/09/13 10:35:54;;;;;;;6.93;2.63;;;;;;;19.95;100.00;156453.97;6275973;22;20074;-74
2023/09/13 10:38:40;;;;;;;5.95;2.65;;;;;;;19.87;100.00;156433.06;6248222;22;20007;-74
2023/09/13 10:41:13;;;;;;;10.23;2.17;;;;;;;19.87;100.00;156434.41;6243753;22;20345;-74
2023/09/13 10:43:40;;;;;;;7.80;2.45;;;;;;;19.87;100.00;156433.06;6272047;22;20318;-74
2023/09/13 10:46:08;;;;;;;6.72;2.17;;;;;;;19.91;100.00;156444.78;6271139;22;20075;-74
2023/09/13 10:48:34;;;;;;;4.63;1.98;;;;;;;20.21;100.00;156521.78;6272712;22;20004;-74
2023/09/13 10:51:01;;;;;;;3.20;1.70;;;;;;;20.74;100.00;156661.41;6244932;22;20341;-74
2023/09/13 10:53:26;;;;;;;5.65;2.22;;;;;;;21.36;100.00;156821.97;6245693;22;20473;-74
2023/09/13 10:55:53;;;;;;;5.83;1.80;;;;;;;21.24;100.00;156790.66;6271810;22;20086;-74
2023/09/13 10:58:20;;;;;;;;;;;;;;;21.68;100.00;156905.59;6246037;22;20008;-75
2023/09/13 11:00:47;;;;;;;2.80;1.65;;;;;;;21.83;100.00;156944.78;6272075;22;19957;-75
2023/09/13 11:03:13;;;;;;;3.58;1.70;;;;;;;21.87;100.00;156955.25;6244883;22;20019;-75
2023/09/13 11:05:38;;;;;;;3.80;1.53;;;;;;;22.05;100.00;157003.56;6271984;22;20008;-75
2023/09/13 11:08:07;;;;;;;4.87;2.00;;;;;;;22.21;100.00;157044.03;6272559;22;20006;-75
2023/09/13 11:10:33;;;;;;;3.50;1.65;;;;;;;22.59;100.00;157144.69;6274570;22;20010;-75
2023/09/13 11:13:13;;;;;;;2.57;1.63;;;;;;;22.72;100.00;157177.38;6248453;22;20023;-75
2023/09/13 11:15:49;;;;;;;5.00;1.60;;;;;;;23.02;100.00;157255.75;6275473;22;20007;-75
2023/09/13 11:18:15;;;;;;;6.57;2.33;;;;;;;23.67;100.00;157427.06;6248389;22;20004;-75
2023/09/13 11:20:42;;;;;;;;;;;;;;;23.31;100.00;157332.91;6275398;22;20022;-74
2023/09/13 11:23:18;;;;;;;4.35;1.70;;;;;;;22.13;100.00;157024.44;6275171;22;19911;-77
2023/09/13 11:25:49;;;;;;;3.43;1.57;;;;;;;21.33;100.00;156815.47;6274826;22;20058;-77
2023/09/13 11:28:29;;;;;;;2.20;1.50;;;;;;;20.88;100.00;156697.97;6274321;22;20012;-77
2023/09/13 11:30:58;;;;;;;5.05;1.58;;;;;;;20.58;100.00;156618.31;6274674;22;20045;-78
2023/09/13 11:33:25;;;;;;;11.38;2.40;;;;;;;20.46;100.00;156587.03;6274149;22;20000;-75
2023/09/13 11:35:51;;;;;;;7.45;2.47;;;;;;;20.19;100.00;156516.59;6275017;22;20448;-76
2023/09/13 11:38:17;;;;;;;10.40;2.87;;;;;;;20.08;100.00;156489.22;6275256;22;20003;-77
2023/09/13 11:40:47;;;;;;;14.68;2.30;;;;;;;20.10;100.00;156493.09;6274670;22;20000;-77
2023/09/13 11:43:18;;;;;;;9.10;2.33;;;;;;;20.31;100.00;156549.19;6248015;22;20077;-77
2023/09/13 11:45:47;;;;;;;5.32;2.00;;;;;;;20.35;100.00;156558.31;6275294;22;20003;-77
2023/09/13 11:48:12;;;;;;;11.30;2.28;;;;;;;20.13;100.00;156500.94;6275320;22;19999;-77